Zim Luanda — 9HA2029 — position and weather

sailwx.info

Track history (hours):
 
Tides and Currents Weather Stations Pressure Air Temp Water Temp Dewpoint Dewpoint Depression Visibility Wind Speed Wind Dir Waves Ship Positions

Zim Luanda

Last reported at 2016-Dec-07 16:21 UTC. Time now 2016-Dec-08 22:05 UTC.
Position N 35°57' W 005°35'.

Length 260 m; draft 11.9 m.

Type: Ship (hazmat cat A). MMSI: 249830000.

Date/timePositionNaut miles runAvg speedWind from/ knotsBaromVisibWave heightAir tempDewpointWater temp
2016-Dec-07 16:21N 35°57' W 005°35'1417.7
2016-Dec-07 15:34N 36°01' W 005°19'13217.8
2016-Dec-07 08:09N 36°22' W 002°37'1119.3
2016-Dec-07 07:33N 36°24' W 002°23'1818.0
2016-Dec-07 06:33N 36°31' W 002°02'1818.1
2016-Dec-07 05:34N 36°42' W 001°45'1918.3
2016-Dec-07 04:33N 36°55' W 001°28'3918.4
2016-Dec-07 02:24N 37°22' W 000°52'1618.7
2016-Dec-07 01:32N 37°32' W 000°36'2118.7
2016-Dec-07 00:24N 37°50' W 000°21'9515.2
2016-Dec-06 18:09N 39°24' W 000°15'4 6.5
2016-Dec-06 17:33N 39°27' W 000°19'0 0.0
2016-Dec-06 16:33N 39°27' W 000°19'0 0.0
2016-Dec-06 15:33N 39°27' W 000°19'0 0.0
2016-Dec-06 14:33N 39°27' W 000°19'0 0.0
2016-Dec-06 13:33N 39°27' W 000°19'0 0.0
2016-Dec-06 12:33N 39°27' W 000°19'0 0.0
2016-Dec-06 11:33N 39°27' W 000°19'0 0.0
2016-Dec-06 10:33N 39°27' W 000°19'0 0.0
2016-Dec-06 09:33N 39°27' W 000°19'0 0.0
2016-Dec-06 08:33N 39°27' W 000°19'0 0.0
2016-Dec-06 07:33N 39°27' W 000°19'0 0.0
2016-Dec-06 06:33N 39°27' W 000°19'5 4.4
2016-Dec-06 05:25N 39°23' W 000°15'0 0.0
2016-Dec-06 03:33N 39°23' W 000°15'0 0.0
2016-Dec-06 02:33N 39°23' W 000°15'0 0.0
2016-Dec-05 23:33N 39°23' W 000°15'0 0.0
2016-Dec-05 19:33N 39°23' W 000°15'0 0.0
2016-Dec-05 18:27N 39°23' W 000°15'0 0.0
2016-Dec-05 17:27N 39°23' W 000°15'0 0.0
2016-Dec-05 11:27N 39°23' W 000°15'0 0.0
2016-Dec-05 06:27N 39°23' W 000°15'0 0.0
2016-Dec-05 05:33N 39°23' W 000°15'1 0.6
2016-Dec-05 03:33N 39°24' W 000°14'7812.6
2016-Dec-04 21:22N 40°23' E 000°53'1412.5
2016-Dec-04 20:16N 40°35' E 001°01'43 3.6
2016-Dec-04 08:15N 41°03' E 001°43'912.7
2016-Dec-04 07:33N 41°04' E 001°55'19 1.5
2016-Dec-03 18:33N 41°15' E 002°15'3 1.2
2016-Dec-03 16:31N 41°18' E 002°15'2510.8
2016-Dec-03 14:13N 41°29' E 002°45'23712.7
2016-Dec-02 19:33N 43°23' E 007°26'5313.2
2016-Dec-02 15:33N 43°55' E 008°24'1413.7
2016-Dec-02 14:33N 44°05' E 008°37'1413.7
2016-Dec-02 13:33N 44°15' E 008°51'10 9.6
2016-Dec-02 12:33N 44°24' E 008°55'1 0.7
2016-Dec-02 11:34N 44°24' E 008°54'0 0.0
2016-Dec-02 10:33N 44°24' E 008°54'0 0.0
2016-Dec-02 09:33N 44°24' E 008°54'0 0.0
2016-Dec-02 08:33N 44°24' E 008°54'0 0.0
2016-Dec-02 07:33N 44°24' E 008°54'0 0.0
2016-Dec-02 06:33N 44°24' E 008°54'0 0.0
2016-Dec-02 05:33N 44°24' E 008°54'0 0.0
2016-Dec-02 04:33N 44°24' E 008°54'0 0.0
2016-Dec-02 03:33N 44°24' E 008°54'0 0.0
2016-Dec-02 02:33N 44°24' E 008°54'0 0.0
2016-Dec-02 01:33N 44°24' E 008°54'0 0.0
2016-Dec-02 00:30N 44°24' E 008°54'0 0.0
2016-Dec-01 23:33N 44°24' E 008°54'0 0.0
2016-Dec-01 22:33N 44°24' E 008°54'0 0.0
2016-Dec-01 21:33N 44°24' E 008°54'0 0.0
2016-Dec-01 20:33N 44°24' E 008°54'0 0.0
2016-Dec-01 19:33N 44°24' E 008°54'0 0.0
2016-Dec-01 18:33N 44°24' E 008°54'0 0.0
2016-Dec-01 17:33N 44°24' E 008°54'0 0.0
2016-Dec-01 16:33N 44°24' E 008°54'0 0.0
2016-Dec-01 15:33N 44°24' E 008°54'0 0.0
2016-Dec-01 14:33N 44°24' E 008°54'3 3.1
2016-Dec-01 13:33N 44°23' E 008°57'2 2.0
2016-Dec-01 12:33N 44°21' E 008°59'1312.9
2016-Dec-01 11:33N 44°09' E 009°06'1818.3
2016-Dec-01 10:34N 43°53' E 009°19'1818.1
2016-Dec-01 09:34N 43°42' E 009°38'1817.8
2016-Dec-01 08:34N 43°31' E 009°58'1514.5
2016-Dec-01 07:33N 43°32' E 010°17'2 1.9
2016-Dec-01 06:28N 43°34' E 010°18'0 0.0
2016-Dec-01 05:31N 43°34' E 010°18'0 0.0
2016-Dec-01 04:31N 43°34' E 010°18'0 0.0
2016-Dec-01 03:31N 43°34' E 010°18'0 0.0
2016-Dec-01 02:31N 43°34' E 010°18'0 0.0
2016-Dec-01 01:31N 43°34' E 010°18'0 0.0
2016-Dec-01 00:28N 43°34' E 010°18'0 0.0
2016-Nov-30 23:31N 43°34' E 010°18'0 0.0
2016-Nov-30 22:31N 43°34' E 010°18'0 0.0
2016-Nov-30 21:31N 43°34' E 010°18'0 0.0
2016-Nov-30 20:31N 43°34' E 010°18'0 0.0
2016-Nov-30 19:31N 43°34' E 010°18'0 0.0
2016-Nov-30 18:31N 43°34' E 010°18'0 0.0
2016-Nov-30 17:31N 43°34' E 010°18'0 0.0
2016-Nov-30 16:31N 43°34' E 010°18'0 0.0
2016-Nov-30 15:31N 43°34' E 010°18'0 0.0
2016-Nov-30 14:25N 43°34' E 010°18'0 0.0
2016-Nov-30 13:31N 43°34' E 010°18'4 3.7
2016-Nov-30 12:33N 43°31' E 010°16'1414.2
2016-Nov-30 11:33N 43°18' E 010°10'2322.6
2016-Nov-30 10:33N 42°56' E 010°05'2420.7
2016-Nov-30 09:24N 42°33' E 010°16'2223.7
2016-Nov-30 08:28N 42°17' E 010°37'28022.8
2016-Nov-29 20:11N 38°57' E 014°54'1422.5
2016-Nov-29 19:33N 38°46' E 015°07'2322.6
2016-Nov-29 18:32N 38°29' E 015°27'1817.9
2016-Nov-29 17:33N 38°15' E 015°41'1110.7
2016-Nov-29 16:33N 38°05' E 015°37'1212.2
2016-Nov-29 15:33N 37°54' E 015°43'37120.3
2016-Nov-28 21:14N 36°48' E 023°23'1522.7
2016-Nov-28 20:33N 37°03' E 023°28'2822.8
2016-Nov-28 19:19N 37°30' E 023°39'1621.4
2016-Nov-28 18:34N 37°46' E 023°39'1111.3
2016-Nov-28 17:34N 37°57' E 023°36'0 0.0
2016-Nov-28 16:31N 37°57' E 023°36'0 0.0
2016-Nov-28 15:33N 37°57' E 023°36'0 0.0
2016-Nov-28 14:33N 37°57' E 023°36'0 0.0
2016-Nov-28 13:30N 37°57' E 023°36'0 0.0
2016-Nov-28 12:33N 37°57' E 023°36'0 0.0
2016-Nov-28 11:33N 37°57' E 023°36'0 0.0
2016-Nov-28 10:27N 37°57' E 023°36'0 0.0
2016-Nov-28 09:34N 37°57' E 023°36'0 0.0
2016-Nov-28 08:33N 37°57' E 023°36'0 0.0
2016-Nov-28 07:33N 37°57' E 023°36'0 0.0
2016-Nov-28 06:33N 37°57' E 023°36'0 0.0
2016-Nov-28 05:33N 37°57' E 023°36'0 0.0
2016-Nov-28 04:33N 37°57' E 023°36'0 0.0
2016-Nov-28 03:33N 37°57' E 023°36'0 0.0
2016-Nov-28 02:33N 37°57' E 023°36'0 0.0
2016-Nov-28 01:33N 37°57' E 023°36'0 0.0
2016-Nov-28 00:15N 37°57' E 023°36'0 0.0
2016-Nov-27 23:33N 37°57' E 023°36'0 0.0
2016-Nov-27 22:33N 37°57' E 023°36'0 0.0
2016-Nov-27 21:33N 37°57' E 023°36'0 0.0
2016-Nov-27 20:24N 37°57' E 023°36'0 0.0
2016-Nov-27 19:33N 37°57' E 023°36'0 0.0
2016-Nov-27 18:33N 37°57' E 023°36'0 0.0
2016-Nov-27 17:33N 37°57' E 023°36'0 0.0
2016-Nov-27 16:33N 37°57' E 023°36'  
Track history (hours):
 
Tides and Currents Weather Stations Pressure Air Temp Water Temp Dewpoint Dewpoint Depression Visibility Wind Speed Wind Dir Waves Ship Positions

Zim Luanda

Last reported at 2016-Dec-07 16:21 UTC. Time now 2016-Dec-08 22:05 UTC.
Position N 35°57' W 005°35'.

Length 260 m; draft 11.9 m.

Type: Ship (hazmat cat A). MMSI: 249830000.

Date/timePositionNaut miles runAvg speedWind from/ knotsBaromVisibWave heightAir tempDewpointWater temp
2016-Dec-07 16:21N 35°57' W 005°35'1417.7
2016-Dec-07 15:34N 36°01' W 005°19'13217.8
2016-Dec-07 08:09N 36°22' W 002°37'1119.3
2016-Dec-07 07:33N 36°24' W 002°23'1818.0
2016-Dec-07 06:33N 36°31' W 002°02'1818.1
2016-Dec-07 05:34N 36°42' W 001°45'1918.3
2016-Dec-07 04:33N 36°55' W 001°28'3918.4
2016-Dec-07 02:24N 37°22' W 000°52'1618.7
2016-Dec-07 01:32N 37°32' W 000°36'2118.7
2016-Dec-07 00:24N 37°50' W 000°21'9515.2
2016-Dec-06 18:09N 39°24' W 000°15'4 6.5
2016-Dec-06 17:33N 39°27' W 000°19'0 0.0
2016-Dec-06 16:33N 39°27' W 000°19'0 0.0
2016-Dec-06 15:33N 39°27' W 000°19'0 0.0
2016-Dec-06 14:33N 39°27' W 000°19'0 0.0
2016-Dec-06 13:33N 39°27' W 000°19'0 0.0
2016-Dec-06 12:33N 39°27' W 000°19'0 0.0
2016-Dec-06 11:33N 39°27' W 000°19'0 0.0
2016-Dec-06 10:33N 39°27' W 000°19'0 0.0
2016-Dec-06 09:33N 39°27' W 000°19'0 0.0
2016-Dec-06 08:33N 39°27' W 000°19'0 0.0
2016-Dec-06 07:33N 39°27' W 000°19'0 0.0
2016-Dec-06 06:33N 39°27' W 000°19'5 4.4
2016-Dec-06 05:25N 39°23' W 000°15'0 0.0
2016-Dec-06 03:33N 39°23' W 000°15'0 0.0
2016-Dec-06 02:33N 39°23' W 000°15'0 0.0
2016-Dec-05 23:33N 39°23' W 000°15'0 0.0
2016-Dec-05 19:33N 39°23' W 000°15'0 0.0
2016-Dec-05 18:27N 39°23' W 000°15'0 0.0
2016-Dec-05 17:27N 39°23' W 000°15'0 0.0
2016-Dec-05 11:27N 39°23' W 000°15'0 0.0
2016-Dec-05 06:27N 39°23' W 000°15'0 0.0
2016-Dec-05 05:33N 39°23' W 000°15'1 0.6
2016-Dec-05 03:33N 39°24' W 000°14'7812.6
2016-Dec-04 21:22N 40°23' E 000°53'1412.5
2016-Dec-04 20:16N 40°35' E 001°01'43 3.6
2016-Dec-04 08:15N 41°03' E 001°43'912.7
2016-Dec-04 07:33N 41°04' E 001°55'19 1.5
2016-Dec-03 18:33N 41°15' E 002°15'3 1.2
2016-Dec-03 16:31N 41°18' E 002°15'2510.8
2016-Dec-03 14:13N 41°29' E 002°45'23712.7
2016-Dec-02 19:33N 43°23' E 007°26'5313.2
2016-Dec-02 15:33N 43°55' E 008°24'1413.7
2016-Dec-02 14:33N 44°05' E 008°37'1413.7
2016-Dec-02 13:33N 44°15' E 008°51'10 9.6
2016-Dec-02 12:33N 44°24' E 008°55'1 0.7
2016-Dec-02 11:34N 44°24' E 008°54'0 0.0
2016-Dec-02 10:33N 44°24' E 008°54'0 0.0
2016-Dec-02 09:33N 44°24' E 008°54'0 0.0
2016-Dec-02 08:33N 44°24' E 008°54'0 0.0
2016-Dec-02 07:33N 44°24' E 008°54'0 0.0
2016-Dec-02 06:33N 44°24' E 008°54'0 0.0
2016-Dec-02 05:33N 44°24' E 008°54'0 0.0
2016-Dec-02 04:33N 44°24' E 008°54'0 0.0
2016-Dec-02 03:33N 44°24' E 008°54'0 0.0
2016-Dec-02 02:33N 44°24' E 008°54'0 0.0
2016-Dec-02 01:33N 44°24' E 008°54'0 0.0
2016-Dec-02 00:30N 44°24' E 008°54'0 0.0
2016-Dec-01 23:33N 44°24' E 008°54'0 0.0
2016-Dec-01 22:33N 44°24' E 008°54'0 0.0
2016-Dec-01 21:33N 44°24' E 008°54'0 0.0
2016-Dec-01 20:33N 44°24' E 008°54'0 0.0
2016-Dec-01 19:33N 44°24' E 008°54'0 0.0
2016-Dec-01 18:33N 44°24' E 008°54'0 0.0
2016-Dec-01 17:33N 44°24' E 008°54'0 0.0
2016-Dec-01 16:33N 44°24' E 008°54'0 0.0
2016-Dec-01 15:33N 44°24' E 008°54'0 0.0
2016-Dec-01 14:33N 44°24' E 008°54'3 3.1
2016-Dec-01 13:33N 44°23' E 008°57'2 2.0
2016-Dec-01 12:33N 44°21' E 008°59'1312.9
2016-Dec-01 11:33N 44°09' E 009°06'1818.3
2016-Dec-01 10:34N 43°53' E 009°19'1818.1
2016-Dec-01 09:34N 43°42' E 009°38'1817.8
2016-Dec-01 08:34N 43°31' E 009°58'1514.5
2016-Dec-01 07:33N 43°32' E 010°17'2 1.9
2016-Dec-01 06:28N 43°34' E 010°18'0 0.0
2016-Dec-01 05:31N 43°34' E 010°18'0 0.0
2016-Dec-01 04:31N 43°34' E 010°18'0 0.0
2016-Dec-01 03:31N 43°34' E 010°18'0 0.0
2016-Dec-01 02:31N 43°34' E 010°18'0 0.0
2016-Dec-01 01:31N 43°34' E 010°18'0 0.0
2016-Dec-01 00:28N 43°34' E 010°18'0 0.0
2016-Nov-30 23:31N 43°34' E 010°18'0 0.0
2016-Nov-30 22:31N 43°34' E 010°18'0 0.0
2016-Nov-30 21:31N 43°34' E 010°18'0 0.0
2016-Nov-30 20:31N 43°34' E 010°18'0 0.0
2016-Nov-30 19:31N 43°34' E 010°18'0 0.0
2016-Nov-30 18:31N 43°34' E 010°18'0 0.0
2016-Nov-30 17:31N 43°34' E 010°18'0 0.0
2016-Nov-30 16:31N 43°34' E 010°18'0 0.0
2016-Nov-30 15:31N 43°34' E 010°18'0 0.0
2016-Nov-30 14:25N 43°34' E 010°18'0 0.0
2016-Nov-30 13:31N 43°34' E 010°18'4 3.7
2016-Nov-30 12:33N 43°31' E 010°16'1414.2
2016-Nov-30 11:33N 43°18' E 010°10'2322.6
2016-Nov-30 10:33N 42°56' E 010°05'2420.7
2016-Nov-30 09:24N 42°33' E 010°16'2223.7
2016-Nov-30 08:28N 42°17' E 010°37'28022.8
2016-Nov-29 20:11N 38°57' E 014°54'1422.5
2016-Nov-29 19:33N 38°46' E 015°07'2322.6
2016-Nov-29 18:32N 38°29' E 015°27'1817.9
2016-Nov-29 17:33N 38°15' E 015°41'1110.7
2016-Nov-29 16:33N 38°05' E 015°37'1212.2
2016-Nov-29 15:33N 37°54' E 015°43'37120.3
2016-Nov-28 21:14N 36°48' E 023°23'1522.7
2016-Nov-28 20:33N 37°03' E 023°28'2822.8
2016-Nov-28 19:19N 37°30' E 023°39'1621.4
2016-Nov-28 18:34N 37°46' E 023°39'1111.3
2016-Nov-28 17:34N 37°57' E 023°36'0 0.0
2016-Nov-28 16:31N 37°57' E 023°36'0 0.0
2016-Nov-28 15:33N 37°57' E 023°36'0 0.0
2016-Nov-28 14:33N 37°57' E 023°36'0 0.0
2016-Nov-28 13:30N 37°57' E 023°36'0 0.0
2016-Nov-28 12:33N 37°57' E 023°36'0 0.0
2016-Nov-28 11:33N 37°57' E 023°36'0 0.0
2016-Nov-28 10:27N 37°57' E 023°36'0 0.0
2016-Nov-28 09:34N 37°57' E 023°36'0 0.0
2016-Nov-28 08:33N 37°57' E 023°36'0 0.0
2016-Nov-28 07:33N 37°57' E 023°36'0 0.0
2016-Nov-28 06:33N 37°57' E 023°36'0 0.0
2016-Nov-28 05:33N 37°57' E 023°36'0 0.0
2016-Nov-28 04:33N 37°57' E 023°36'0 0.0
2016-Nov-28 03:33N 37°57' E 023°36'0 0.0
2016-Nov-28 02:33N 37°57' E 023°36'0 0.0
2016-Nov-28 01:33N 37°57' E 023°36'0 0.0
2016-Nov-28 00:15N 37°57' E 023°36'0 0.0
2016-Nov-27 23:33N 37°57' E 023°36'0 0.0
2016-Nov-27 22:33N 37°57' E 023°36'0 0.0
2016-Nov-27 21:33N 37°57' E 023°36'0 0.0
2016-Nov-27 20:24N 37°57' E 023°36'0 0.0
2016-Nov-27 19:33N 37°57' E 023°36'0 0.0
2016-Nov-27 18:33N 37°57' E 023°36'0 0.0
2016-Nov-27 17:33N 37°57' E 023°36'0 0.0
2016-Nov-27 16:33N 37°57' E 023°36'  

Dump ship's entire track history